Thalassa Niki — 9V2233 — position and weather

sailwx.info

Track history (hours):
 
Tides and Currents Weather Stations Pressure Air Temp Water Temp Dewpoint Dewpoint Depression Visibility Wind Speed Wind Dir Waves Ship Positions

Thalassa Niki

Last reported at 2017-Dec-03 23:33 UTC. Time now 2017-Dec-11 11:39 UTC.
Position N 33°19' E 026°22'.

Length 368 m; draft 15.3 m.

Type: Ship (hazmat cat A). MMSI: 564728000.

Date/timePositionNaut miles runAvg speedWind from/ knotsBaromVisibWave heightAir tempDewpointWater temp
2017-Dec-03 23:33N 33°19' E 026°22'116.2
2017-Dec-03 23:30N 33°19' E 026°21'816.4
2017-Dec-03 23:00N 33°22' E 026°12'816.6
2017-Dec-03 22:30N 33°24' E 026°03'2216.8
2017-Dec-03 21:12N 33°31' E 025°38'616.7
2017-Dec-03 20:49N 33°33' E 025°30'616.5
2017-Dec-03 20:29N 33°34' E 025°24'816.5
2017-Dec-03 20:00N 33°37' E 025°15'816.6
2017-Dec-03 19:30N 33°39' E 025°06'1016.8
2017-Dec-03 18:55N 33°43' E 024°54'51617.7
2017-Dec-02 13:51N 36°21' E 014°55'718.7
2017-Dec-02 13:30N 36°23' E 014°47'1019.2
2017-Dec-02 13:00N 36°26' E 014°36'918.0
2017-Dec-02 12:30N 36°29' E 014°25'918.6
2017-Dec-02 12:00N 36°32' E 014°14'918.4
2017-Dec-02 11:30N 36°34' E 014°03'918.3
2017-Dec-02 11:00N 36°37' E 013°52'918.2
2017-Dec-02 10:30N 36°40' E 013°42'918.2
2017-Dec-02 10:00N 36°43' E 013°31'917.8
2017-Dec-02 09:30N 36°46' E 013°20'88617.3
2017-Nov-30 06:16N 36°01' W 004°58'519.8
2017-Nov-30 05:59N 36°00' W 005°05'1019.8
2017-Nov-30 05:30N 35°59' W 005°17'1020.1
2017-Nov-30 05:01N 35°57' W 005°29'2018.4
2017-Nov-30 03:57N 35°54' W 005°53'14516.7
2017-Nov-29 19:14N 36°27' W 008°48'616.5
2017-Nov-29 18:53N 36°29' W 008°55'1416.5
2017-Nov-29 18:04N 36°33' W 009°11'316.2
2017-Nov-29 17:54N 36°33' W 009°14'6215.9
2017-Nov-29 14:02N 37°29' W 009°45'116.6
2017-Nov-29 13:59N 37°31' W 009°46'1416.8
2017-Nov-29 13:09N 37°44' W 009°49'316.7
2017-Nov-29 12:59N 37°47' W 009°50'916.9
2017-Nov-29 12:29N 37°55' W 009°53'816.9
2017-Nov-29 12:00N 38°03' W 009°55'816.8
2017-Nov-29 11:30N 38°11' W 009°58'816.9
2017-Nov-29 11:00N 38°19' W 010°01'816.9
2017-Nov-29 10:31N 38°27' W 010°03'917.1
2017-Nov-29 10:00N 38°36' W 010°06'817.0
2017-Nov-29 09:31N 38°44' W 010°08'917.0
2017-Nov-29 09:00N 38°52' W 010°08'816.9
2017-Nov-29 08:30N 39°01' W 010°08'917.1
2017-Nov-29 08:00N 39°09' W 010°08'917.2
2017-Nov-29 07:30N 39°18' W 010°08'917.1
2017-Nov-29 07:00N 39°27' W 010°08'1117.3
2017-Nov-29 06:23N 39°37' W 010°08'57916.7
2017-Nov-27 19:41N 48°47' W 005°54'415.9
2017-Nov-27 19:27N 48°50' W 005°51'815.3
2017-Nov-27 18:56N 48°56' W 005°43'715.6
2017-Nov-27 18:30N 48°59' W 005°34'815.6
2017-Nov-27 18:00N 49°03' W 005°24'7015.8
2017-Nov-27 13:33N 49°39' W 003°51'215.1
2017-Nov-27 13:27N 49°39' W 003°49'714.8
2017-Nov-27 12:58N 49°42' W 003°39'714.5
2017-Nov-27 12:27N 49°47' W 003°29'613.7
2017-Nov-27 12:00N 49°50' W 003°21'813.6
2017-Nov-27 11:27N 49°53' W 003°11'512.4
2017-Nov-27 11:00N 49°56' W 003°03'510.5
2017-Nov-27 10:30N 49°58' W 002°56'510.8
2017-Nov-27 10:01N 49°60' W 002°48'611.0
2017-Nov-27 09:31N 50°02' W 002°40'611.3
2017-Nov-27 09:00N 50°03' W 002°31'6811.9
2017-Nov-27 03:20N 50°21' W 000°49'411.0
2017-Nov-27 02:58N 50°22' W 000°43'910.9
2017-Nov-27 02:07N 50°25' W 000°29'110.9
2017-Nov-27 02:00N 50°25' W 000°27'611.1
2017-Nov-27 01:30N 50°26' W 000°19'611.4
2017-Nov-27 01:00N 50°28' W 000°10'611.5
2017-Nov-27 00:31N 50°30' W 000°02'611.9
2017-Nov-27 00:01N 50°31' E 000°08'612.4
2017-Nov-26 23:30N 50°33' E 000°17'612.8
2017-Nov-26 23:01N 50°35' E 000°26'713.0
2017-Nov-26 22:31N 50°37' E 000°36'713.4
2017-Nov-26 22:00N 50°41' E 000°45'713.6
2017-Nov-26 21:30N 50°44' E 000°54'713.5
2017-Nov-26 21:00N 50°48' E 001°03'713.1
2017-Nov-26 20:30N 50°52' E 001°11'612.9
2017-Nov-26 20:00N 50°56' E 001°19'612.7
2017-Nov-26 19:30N 51°00' E 001°26'612.0
2017-Nov-26 19:00N 51°05' E 001°32'611.5
2017-Nov-26 18:30N 51°09' E 001°39'611.3
2017-Nov-26 18:00N 51°13' E 001°45'611.8
2017-Nov-26 17:30N 51°18' E 001°50'612.1
2017-Nov-26 17:00N 51°24' E 001°54'612.1
2017-Nov-26 16:31N 51°29' E 001°59'612.5
2017-Nov-26 16:00N 51°33' E 002°06'612.7
2017-Nov-26 15:31N 51°38' E 002°14'612.9
2017-Nov-26 15:00N 51°42' E 002°21'4312.4
2017-Nov-26 11:34N 52°02' E 003°21'112.6
2017-Nov-26 11:29N 52°03' E 003°23'612.6
2017-Nov-26 11:00N 52°03' E 003°33'612.4
2017-Nov-26 10:30N 52°01' E 003°43'611.9
2017-Nov-26 10:00N 52°02' E 003°52'2 4.0
2017-Nov-26 09:30N 52°03' E 003°55'510.2
2017-Nov-26 09:00N 51°60' E 004°02'3 5.8
2017-Nov-26 08:28N 51°57' E 004°05'1 1.2
2017-Nov-26 07:58N 51°57' E 004°04'0 0.0
2017-Nov-26 07:28N 51°57' E 004°04'0 0.0
2017-Nov-26 06:58N 51°57' E 004°04'0 0.0
2017-Nov-26 06:28N 51°57' E 004°04'0 0.0
2017-Nov-26 05:58N 51°57' E 004°04'0 0.0
2017-Nov-26 05:28N 51°57' E 004°04'0 0.0
2017-Nov-26 04:58N 51°57' E 004°04'0 0.0
2017-Nov-26 04:28N 51°57' E 004°04'0 0.0
2017-Nov-26 03:58N 51°57' E 004°04'0 0.0
2017-Nov-26 03:28N 51°57' E 004°04'0 0.0
2017-Nov-26 02:58N 51°57' E 004°04'0 0.0
2017-Nov-26 02:28N 51°57' E 004°04'0 0.0
2017-Nov-26 01:58N 51°57' E 004°04'0 0.0
2017-Nov-26 01:28N 51°57' E 004°04'0 0.0
2017-Nov-26 00:58N 51°57' E 004°04'0 0.0
2017-Nov-26 00:28N 51°57' E 004°04'0 0.0
2017-Nov-25 23:58N 51°57' E 004°04'0 0.0
2017-Nov-25 23:28N 51°57' E 004°04'0 0.0
2017-Nov-25 22:58N 51°57' E 004°04'0 0.0
2017-Nov-25 22:28N 51°57' E 004°04'0 0.0
2017-Nov-25 21:58N 51°57' E 004°04'0 0.0
2017-Nov-25 21:28N 51°57' E 004°04'0 0.0
2017-Nov-25 20:58N 51°57' E 004°04'0 0.0
2017-Nov-25 20:28N 51°57' E 004°04'0 0.0
2017-Nov-25 19:58N 51°57' E 004°04'0 0.0
2017-Nov-25 19:28N 51°57' E 004°04'0 0.0
2017-Nov-25 18:58N 51°57' E 004°04'0 0.0
2017-Nov-25 18:28N 51°57' E 004°04'0 0.0
2017-Nov-25 17:58N 51°57' E 004°04'0 0.0
2017-Nov-25 17:28N 51°57' E 004°04'0 0.0
2017-Nov-25 16:58N 51°57' E 004°04'0 0.0
2017-Nov-25 16:28N 51°57' E 004°04'0 0.0
2017-Nov-25 15:58N 51°57' E 004°04'0 0.0
2017-Nov-25 15:28N 51°57' E 004°04'0 0.0
2017-Nov-25 14:58N 51°57' E 004°04'0 0.0
2017-Nov-25 14:28N 51°57' E 004°04'0 0.0
2017-Nov-25 13:58N 51°57' E 004°04'0 0.0
2017-Nov-25 13:28N 51°57' E 004°04'0 0.0
2017-Nov-25 12:58N 51°57' E 004°04'0 0.0
2017-Nov-25 12:28N 51°57' E 004°04'0 0.0
2017-Nov-25 11:58N 51°57' E 004°04'0 0.0
2017-Nov-25 11:28N 51°57' E 004°04'0 0.0
2017-Nov-25 10:58N 51°57' E 004°04'0 0.0
2017-Nov-25 10:28N 51°57' E 004°04'0 0.0
2017-Nov-25 09:58N 51°57' E 004°04'0 0.0
2017-Nov-25 09:28N 51°57' E 004°04'0 0.0
2017-Nov-25 08:58N 51°57' E 004°04'0 0.0
2017-Nov-25 08:28N 51°57' E 004°04'0 0.0
2017-Nov-25 07:58N 51°57' E 004°04'0 0.0
2017-Nov-25 07:28N 51°57' E 004°04'0 0.0
2017-Nov-25 06:58N 51°57' E 004°04'0 0.0
2017-Nov-25 06:28N 51°57' E 004°04'0 0.0
2017-Nov-25 05:58N 51°57' E 004°04'0 0.0
2017-Nov-25 05:28N 51°57' E 004°04'0 0.0
2017-Nov-25 04:58N 51°57' E 004°04'0 0.0
2017-Nov-25 04:28N 51°57' E 004°04'0 0.0
2017-Nov-25 03:58N 51°57' E 004°04'0 0.1
2017-Nov-25 03:28N 51°57' E 004°04'0 0.0
2017-Nov-25 02:58N 51°57' E 004°04'0 0.0
2017-Nov-25 02:28N 51°57' E 004°04'0 0.0
2017-Nov-25 01:58N 51°57' E 004°04'0 0.0
2017-Nov-25 01:28N 51°57' E 004°04'0 0.0
2017-Nov-25 00:58N 51°57' E 004°04'0 0.0
2017-Nov-25 00:28N 51°57' E 004°04'0 0.0
2017-Nov-24 23:58N 51°57' E 004°04'0 0.0
2017-Nov-24 23:28N 51°57' E 004°04'0 0.0
2017-Nov-24 22:58N 51°57' E 004°04'0 0.0
2017-Nov-24 22:29N 51°57' E 004°04'0 0.0
2017-Nov-24 21:58N 51°57' E 004°04'0 0.0
2017-Nov-24 21:28N 51°57' E 004°04'0 0.0
2017-Nov-24 20:58N 51°57' E 004°04'0 0.0
2017-Nov-24 20:28N 51°57' E 004°04'1 1.2
2017-Nov-24 20:01N 51°57' E 004°05'3 5.6
2017-Nov-24 19:31N 51°59' E 004°02'612.7
2017-Nov-24 19:00N 52°01' E 003°52'510.0
2017-Nov-24 18:31N 52°02' E 003°44'714.9
2017-Nov-24 18:00N 52°06' E 003°34'815.3
2017-Nov-24 17:30N 52°09' E 003°23'612.1
2017-Nov-24 17:00N 52°15' E 003°24'713.8
2017-Nov-24 16:29N 52°22' E 003°28'714.3
2017-Nov-24 16:00N 52°29' E 003°29'714.5
2017-Nov-24 15:29N 52°36' E 003°31'714.5
2017-Nov-24 15:00N 52°42' E 003°37'714.7
2017-Nov-24 14:30N 52°48' E 003°44'714.8
2017-Nov-24 14:00N 52°53' E 003°52'714.8
2017-Nov-24 13:30N 52°59' E 004°01'714.9
2017-Nov-24 13:00N 53°03' E 004°11'714.8
2017-Nov-24 12:30N 53°08' E 004°20'714.6
2017-Nov-24 12:00N 53°14' E 004°27'815.4
2017-Nov-24 11:30N 53°21' E 004°31'915.1
2017-Nov-24 10:55N 53°29' E 004°39'615.3
2017-Nov-24 10:30N 53°32' E 004°48'815.4
2017-Nov-24 10:00N 53°34' E 005°01'815.2
2017-Nov-24 09:31N 53°37' E 005°13'815.0
2017-Nov-24 09:00N 53°39' E 005°25'1515.7
2017-Nov-24 08:05N 53°43' E 005°49'116.1
2017-Nov-24 08:00N 53°43' E 005°51'6316.0
2017-Nov-24 04:02N 54°01' E 007°34'015.4
2017-Nov-24 04:00N 54°01' E 007°35'815.1
2017-Nov-24 03:30N 54°02' E 007°48'815.3
2017-Nov-24 03:00N 54°01' E 008°01'815.2
2017-Nov-24 02:30N 54°00' E 008°13'611.6
2017-Nov-24 02:01N 53°59' E 008°23'816.6
2017-Nov-24 01:30N 53°57' E 008°37'714.3
2017-Nov-24 01:01N 53°52' E 008°44'713.0
2017-Nov-24 00:30N 53°51' E 008°55'714.1
2017-Nov-24 00:00N 53°53' E 009°07'  
Track history (hours):
 
Tides and Currents Weather Stations Pressure Air Temp Water Temp Dewpoint Dewpoint Depression Visibility Wind Speed Wind Dir Waves Ship Positions

Thalassa Niki

Last reported at 2017-Dec-03 23:33 UTC. Time now 2017-Dec-11 11:39 UTC.
Position N 33°19' E 026°22'.

Length 368 m; draft 15.3 m.

Type: Ship (hazmat cat A). MMSI: 564728000.

Date/timePositionNaut miles runAvg speedWind from/ knotsBaromVisibWave heightAir tempDewpointWater temp
2017-Dec-03 23:33N 33°19' E 026°22'116.2
2017-Dec-03 23:30N 33°19' E 026°21'816.4
2017-Dec-03 23:00N 33°22' E 026°12'816.6
2017-Dec-03 22:30N 33°24' E 026°03'2216.8
2017-Dec-03 21:12N 33°31' E 025°38'616.7
2017-Dec-03 20:49N 33°33' E 025°30'616.5
2017-Dec-03 20:29N 33°34' E 025°24'816.5
2017-Dec-03 20:00N 33°37' E 025°15'816.6
2017-Dec-03 19:30N 33°39' E 025°06'1016.8
2017-Dec-03 18:55N 33°43' E 024°54'51617.7
2017-Dec-02 13:51N 36°21' E 014°55'718.7
2017-Dec-02 13:30N 36°23' E 014°47'1019.2
2017-Dec-02 13:00N 36°26' E 014°36'918.0
2017-Dec-02 12:30N 36°29' E 014°25'918.6
2017-Dec-02 12:00N 36°32' E 014°14'918.4
2017-Dec-02 11:30N 36°34' E 014°03'918.3
2017-Dec-02 11:00N 36°37' E 013°52'918.2
2017-Dec-02 10:30N 36°40' E 013°42'918.2
2017-Dec-02 10:00N 36°43' E 013°31'917.8
2017-Dec-02 09:30N 36°46' E 013°20'88617.3
2017-Nov-30 06:16N 36°01' W 004°58'519.8
2017-Nov-30 05:59N 36°00' W 005°05'1019.8
2017-Nov-30 05:30N 35°59' W 005°17'1020.1
2017-Nov-30 05:01N 35°57' W 005°29'2018.4
2017-Nov-30 03:57N 35°54' W 005°53'14516.7
2017-Nov-29 19:14N 36°27' W 008°48'616.5
2017-Nov-29 18:53N 36°29' W 008°55'1416.5
2017-Nov-29 18:04N 36°33' W 009°11'316.2
2017-Nov-29 17:54N 36°33' W 009°14'6215.9
2017-Nov-29 14:02N 37°29' W 009°45'116.6
2017-Nov-29 13:59N 37°31' W 009°46'1416.8
2017-Nov-29 13:09N 37°44' W 009°49'316.7
2017-Nov-29 12:59N 37°47' W 009°50'916.9
2017-Nov-29 12:29N 37°55' W 009°53'816.9
2017-Nov-29 12:00N 38°03' W 009°55'816.8
2017-Nov-29 11:30N 38°11' W 009°58'816.9
2017-Nov-29 11:00N 38°19' W 010°01'816.9
2017-Nov-29 10:31N 38°27' W 010°03'917.1
2017-Nov-29 10:00N 38°36' W 010°06'817.0
2017-Nov-29 09:31N 38°44' W 010°08'917.0
2017-Nov-29 09:00N 38°52' W 010°08'816.9
2017-Nov-29 08:30N 39°01' W 010°08'917.1
2017-Nov-29 08:00N 39°09' W 010°08'917.2
2017-Nov-29 07:30N 39°18' W 010°08'917.1
2017-Nov-29 07:00N 39°27' W 010°08'1117.3
2017-Nov-29 06:23N 39°37' W 010°08'57916.7
2017-Nov-27 19:41N 48°47' W 005°54'415.9
2017-Nov-27 19:27N 48°50' W 005°51'815.3
2017-Nov-27 18:56N 48°56' W 005°43'715.6
2017-Nov-27 18:30N 48°59' W 005°34'815.6
2017-Nov-27 18:00N 49°03' W 005°24'7015.8
2017-Nov-27 13:33N 49°39' W 003°51'215.1
2017-Nov-27 13:27N 49°39' W 003°49'714.8
2017-Nov-27 12:58N 49°42' W 003°39'714.5
2017-Nov-27 12:27N 49°47' W 003°29'613.7
2017-Nov-27 12:00N 49°50' W 003°21'813.6
2017-Nov-27 11:27N 49°53' W 003°11'512.4
2017-Nov-27 11:00N 49°56' W 003°03'510.5
2017-Nov-27 10:30N 49°58' W 002°56'510.8
2017-Nov-27 10:01N 49°60' W 002°48'611.0
2017-Nov-27 09:31N 50°02' W 002°40'611.3
2017-Nov-27 09:00N 50°03' W 002°31'6811.9
2017-Nov-27 03:20N 50°21' W 000°49'411.0
2017-Nov-27 02:58N 50°22' W 000°43'910.9
2017-Nov-27 02:07N 50°25' W 000°29'110.9
2017-Nov-27 02:00N 50°25' W 000°27'611.1
2017-Nov-27 01:30N 50°26' W 000°19'611.4
2017-Nov-27 01:00N 50°28' W 000°10'611.5
2017-Nov-27 00:31N 50°30' W 000°02'611.9
2017-Nov-27 00:01N 50°31' E 000°08'612.4
2017-Nov-26 23:30N 50°33' E 000°17'612.8
2017-Nov-26 23:01N 50°35' E 000°26'713.0
2017-Nov-26 22:31N 50°37' E 000°36'713.4
2017-Nov-26 22:00N 50°41' E 000°45'713.6
2017-Nov-26 21:30N 50°44' E 000°54'713.5
2017-Nov-26 21:00N 50°48' E 001°03'713.1
2017-Nov-26 20:30N 50°52' E 001°11'612.9
2017-Nov-26 20:00N 50°56' E 001°19'612.7
2017-Nov-26 19:30N 51°00' E 001°26'612.0
2017-Nov-26 19:00N 51°05' E 001°32'611.5
2017-Nov-26 18:30N 51°09' E 001°39'611.3
2017-Nov-26 18:00N 51°13' E 001°45'611.8
2017-Nov-26 17:30N 51°18' E 001°50'612.1
2017-Nov-26 17:00N 51°24' E 001°54'612.1
2017-Nov-26 16:31N 51°29' E 001°59'612.5
2017-Nov-26 16:00N 51°33' E 002°06'612.7
2017-Nov-26 15:31N 51°38' E 002°14'612.9
2017-Nov-26 15:00N 51°42' E 002°21'4312.4
2017-Nov-26 11:34N 52°02' E 003°21'112.6
2017-Nov-26 11:29N 52°03' E 003°23'612.6
2017-Nov-26 11:00N 52°03' E 003°33'612.4
2017-Nov-26 10:30N 52°01' E 003°43'611.9
2017-Nov-26 10:00N 52°02' E 003°52'2 4.0
2017-Nov-26 09:30N 52°03' E 003°55'510.2
2017-Nov-26 09:00N 51°60' E 004°02'3 5.8
2017-Nov-26 08:28N 51°57' E 004°05'1 1.2
2017-Nov-26 07:58N 51°57' E 004°04'0 0.0
2017-Nov-26 07:28N 51°57' E 004°04'0 0.0
2017-Nov-26 06:58N 51°57' E 004°04'0 0.0
2017-Nov-26 06:28N 51°57' E 004°04'0 0.0
2017-Nov-26 05:58N 51°57' E 004°04'0 0.0
2017-Nov-26 05:28N 51°57' E 004°04'0 0.0
2017-Nov-26 04:58N 51°57' E 004°04'0 0.0
2017-Nov-26 04:28N 51°57' E 004°04'0 0.0
2017-Nov-26 03:58N 51°57' E 004°04'0 0.0
2017-Nov-26 03:28N 51°57' E 004°04'0 0.0
2017-Nov-26 02:58N 51°57' E 004°04'0 0.0
2017-Nov-26 02:28N 51°57' E 004°04'0 0.0
2017-Nov-26 01:58N 51°57' E 004°04'0 0.0
2017-Nov-26 01:28N 51°57' E 004°04'0 0.0
2017-Nov-26 00:58N 51°57' E 004°04'0 0.0
2017-Nov-26 00:28N 51°57' E 004°04'0 0.0
2017-Nov-25 23:58N 51°57' E 004°04'0 0.0
2017-Nov-25 23:28N 51°57' E 004°04'0 0.0
2017-Nov-25 22:58N 51°57' E 004°04'0 0.0
2017-Nov-25 22:28N 51°57' E 004°04'0 0.0
2017-Nov-25 21:58N 51°57' E 004°04'0 0.0
2017-Nov-25 21:28N 51°57' E 004°04'0 0.0
2017-Nov-25 20:58N 51°57' E 004°04'0 0.0
2017-Nov-25 20:28N 51°57' E 004°04'0 0.0
2017-Nov-25 19:58N 51°57' E 004°04'0 0.0
2017-Nov-25 19:28N 51°57' E 004°04'0 0.0
2017-Nov-25 18:58N 51°57' E 004°04'0 0.0
2017-Nov-25 18:28N 51°57' E 004°04'0 0.0
2017-Nov-25 17:58N 51°57' E 004°04'0 0.0
2017-Nov-25 17:28N 51°57' E 004°04'0 0.0
2017-Nov-25 16:58N 51°57' E 004°04'0 0.0
2017-Nov-25 16:28N 51°57' E 004°04'0 0.0
2017-Nov-25 15:58N 51°57' E 004°04'0 0.0
2017-Nov-25 15:28N 51°57' E 004°04'0 0.0
2017-Nov-25 14:58N 51°57' E 004°04'0 0.0
2017-Nov-25 14:28N 51°57' E 004°04'0 0.0
2017-Nov-25 13:58N 51°57' E 004°04'0 0.0
2017-Nov-25 13:28N 51°57' E 004°04'0 0.0
2017-Nov-25 12:58N 51°57' E 004°04'0 0.0
2017-Nov-25 12:28N 51°57' E 004°04'0 0.0
2017-Nov-25 11:58N 51°57' E 004°04'0 0.0
2017-Nov-25 11:28N 51°57' E 004°04'0 0.0
2017-Nov-25 10:58N 51°57' E 004°04'0 0.0
2017-Nov-25 10:28N 51°57' E 004°04'0 0.0
2017-Nov-25 09:58N 51°57' E 004°04'0 0.0
2017-Nov-25 09:28N 51°57' E 004°04'0 0.0
2017-Nov-25 08:58N 51°57' E 004°04'0 0.0
2017-Nov-25 08:28N 51°57' E 004°04'0 0.0
2017-Nov-25 07:58N 51°57' E 004°04'0 0.0
2017-Nov-25 07:28N 51°57' E 004°04'0 0.0
2017-Nov-25 06:58N 51°57' E 004°04'0 0.0
2017-Nov-25 06:28N 51°57' E 004°04'0 0.0
2017-Nov-25 05:58N 51°57' E 004°04'0 0.0
2017-Nov-25 05:28N 51°57' E 004°04'0 0.0
2017-Nov-25 04:58N 51°57' E 004°04'0 0.0
2017-Nov-25 04:28N 51°57' E 004°04'0 0.0
2017-Nov-25 03:58N 51°57' E 004°04'0 0.1
2017-Nov-25 03:28N 51°57' E 004°04'0 0.0
2017-Nov-25 02:58N 51°57' E 004°04'0 0.0
2017-Nov-25 02:28N 51°57' E 004°04'0 0.0
2017-Nov-25 01:58N 51°57' E 004°04'0 0.0
2017-Nov-25 01:28N 51°57' E 004°04'0 0.0
2017-Nov-25 00:58N 51°57' E 004°04'0 0.0
2017-Nov-25 00:28N 51°57' E 004°04'0 0.0
2017-Nov-24 23:58N 51°57' E 004°04'0 0.0
2017-Nov-24 23:28N 51°57' E 004°04'0 0.0
2017-Nov-24 22:58N 51°57' E 004°04'0 0.0
2017-Nov-24 22:29N 51°57' E 004°04'0 0.0
2017-Nov-24 21:58N 51°57' E 004°04'0 0.0
2017-Nov-24 21:28N 51°57' E 004°04'0 0.0
2017-Nov-24 20:58N 51°57' E 004°04'0 0.0
2017-Nov-24 20:28N 51°57' E 004°04'1 1.2
2017-Nov-24 20:01N 51°57' E 004°05'3 5.6
2017-Nov-24 19:31N 51°59' E 004°02'612.7
2017-Nov-24 19:00N 52°01' E 003°52'510.0
2017-Nov-24 18:31N 52°02' E 003°44'714.9
2017-Nov-24 18:00N 52°06' E 003°34'815.3
2017-Nov-24 17:30N 52°09' E 003°23'612.1
2017-Nov-24 17:00N 52°15' E 003°24'713.8
2017-Nov-24 16:29N 52°22' E 003°28'714.3
2017-Nov-24 16:00N 52°29' E 003°29'714.5
2017-Nov-24 15:29N 52°36' E 003°31'714.5
2017-Nov-24 15:00N 52°42' E 003°37'714.7
2017-Nov-24 14:30N 52°48' E 003°44'714.8
2017-Nov-24 14:00N 52°53' E 003°52'714.8
2017-Nov-24 13:30N 52°59' E 004°01'714.9
2017-Nov-24 13:00N 53°03' E 004°11'714.8
2017-Nov-24 12:30N 53°08' E 004°20'714.6
2017-Nov-24 12:00N 53°14' E 004°27'815.4
2017-Nov-24 11:30N 53°21' E 004°31'915.1
2017-Nov-24 10:55N 53°29' E 004°39'615.3
2017-Nov-24 10:30N 53°32' E 004°48'815.4
2017-Nov-24 10:00N 53°34' E 005°01'815.2
2017-Nov-24 09:31N 53°37' E 005°13'815.0
2017-Nov-24 09:00N 53°39' E 005°25'1515.7
2017-Nov-24 08:05N 53°43' E 005°49'116.1
2017-Nov-24 08:00N 53°43' E 005°51'6316.0
2017-Nov-24 04:02N 54°01' E 007°34'015.4
2017-Nov-24 04:00N 54°01' E 007°35'815.1
2017-Nov-24 03:30N 54°02' E 007°48'815.3
2017-Nov-24 03:00N 54°01' E 008°01'815.2
2017-Nov-24 02:30N 54°00' E 008°13'611.6
2017-Nov-24 02:01N 53°59' E 008°23'816.6
2017-Nov-24 01:30N 53°57' E 008°37'714.3
2017-Nov-24 01:01N 53°52' E 008°44'713.0
2017-Nov-24 00:30N 53°51' E 008°55'714.1
2017-Nov-24 00:00N 53°53' E 009°07'  

Dump ship's entire track history